createdAt,value
2022-11-17T00:01:51.301Z,6.88
2022-11-17T00:04:20.480Z,7.50
2022-11-17T00:06:49.658Z,6.80
2022-11-17T00:09:18.881Z,7.10
2022-11-17T00:12:08.260Z,6.75
2022-11-17T00:14:41.468Z,7.07
2022-11-17T00:17:14.643Z,7.50
2022-11-17T00:20:02.333Z,5.65
2022-11-17T00:22:33.375Z,6.43
2022-11-17T00:25:02.678Z,5.75
2022-11-17T00:27:31.920Z,6.03
2022-11-17T00:30:01.231Z,5.75
2022-11-17T00:32:48.518Z,5.70
2022-11-17T00:35:17.734Z,6.85
2022-11-17T00:38:05.482Z,6.20
2022-11-17T00:40:34.647Z,17.00
2022-11-17T00:43:03.796Z,8.10
2022-11-17T00:45:32.965Z,5.60
2022-11-17T00:48:02.142Z,6.30
2022-11-17T00:50:31.700Z,8.20
2022-11-17T00:53:00.795Z,8.32
2022-11-17T00:55:29.966Z,7.88
2022-11-17T00:57:59.106Z,7.10
2022-11-17T01:00:28.278Z,7.30
2022-11-17T01:02:57.422Z,5.75
2022-11-17T01:05:30.359Z,6.20
2022-11-17T01:08:02.098Z,6.95
2022-11-17T01:10:31.214Z,6.43
2022-11-17T01:13:00.320Z,5.78
2022-11-17T01:15:29.642Z,4.85
2022-11-17T01:17:58.741Z,4.97
2022-11-17T01:20:30.279Z,5.88
2022-11-17T01:23:09.668Z,5.85
2022-11-17T01:25:39.196Z,4.68
2022-11-17T01:28:08.345Z,4.57
2022-11-17T01:30:41.111Z,4.35
2022-11-17T01:33:13.626Z,5.93
2022-11-17T01:35:46.757Z,4.28
2022-11-17T01:38:15.814Z,4.05
2022-11-17T01:40:45.655Z,3.50
2022-11-17T01:43:16.551Z,3.35
2022-11-17T01:45:49.683Z,3.85
2022-11-17T01:48:21.493Z,3.95
2022-11-17T01:50:54.088Z,3.83
2022-11-17T01:53:25.228Z,3.30
2022-11-17T01:56:05.234Z,3.17
2022-11-17T01:58:40.169Z,3.47
2022-11-17T02:01:09.569Z,3.30
2022-11-17T02:03:41.320Z,2.75
2022-11-17T02:06:30.295Z,2.20
2022-11-17T02:09:03.565Z,2.63
2022-11-17T02:11:37.000Z,2.67
2022-11-17T02:14:06.976Z,2.28
2022-11-17T02:16:36.065Z,2.90
2022-11-17T02:19:05.699Z,3.20
2022-11-17T02:21:46.823Z,2.70
2022-11-17T02:25:01.129Z,3.60
2022-11-17T02:28:04.214Z,3.50
2022-11-17T02:30:47.893Z,3.65
2022-11-17T02:33:47.868Z,3.42
2022-11-17T02:36:44.093Z,3.38
2022-11-17T02:39:45.820Z,3.25
2022-11-17T02:42:43.211Z,3.17
2022-11-17T02:45:19.742Z,3.35
2022-11-17T02:47:55.269Z,3.72
2022-11-17T02:50:28.765Z,3.97
2022-11-17T02:52:59.101Z,4.03
2022-11-17T02:55:28.739Z,3.13
2022-11-17T02:57:57.833Z,3.50
2022-11-17T03:00:29.068Z,3.45
2022-11-17T03:03:19.726Z,4.30
2022-11-17T03:06:29.023Z,3.22
2022-11-17T03:09:14.360Z,3.63
2022-11-17T03:12:06.652Z,3.40
2022-11-17T03:14:59.841Z,3.45
2022-11-17T03:18:08.403Z,3.05
2022-11-17T03:21:17.795Z,2.53
2022-11-17T03:24:26.603Z,2.88
2022-11-17T03:27:46.071Z,3.65
2022-11-17T03:30:17.109Z,2.67
2022-11-17T03:32:59.709Z,2.90
2022-11-17T03:35:37.299Z,3.75
2022-11-17T03:38:17.151Z,3.58
2022-11-17T03:40:51.046Z,2.63
2022-11-17T03:43:22.738Z,3.05
2022-11-17T03:45:57.065Z,3.17
2022-11-17T03:48:38.327Z,3.28
2022-11-17T03:51:34.508Z,3.90
2022-11-17T03:54:03.958Z,3.30
2022-11-17T03:56:44.590Z,3.13
2022-11-17T03:59:23.768Z,2.58
2022-11-17T04:01:53.779Z,1.80
2022-11-17T04:04:24.539Z,2.08
2022-11-17T04:06:56.430Z,1.58
2022-11-17T04:09:25.797Z,2.10
2022-11-17T04:12:33.241Z,1.75
2022-11-17T04:15:20.769Z,2.00
2022-11-17T04:17:49.972Z,1.70
2022-11-17T04:20:19.174Z,1.52
2022-11-17T04:23:07.841Z,1.70
2022-11-17T04:26:04.960Z,2.20
2022-11-17T04:28:37.859Z,3.07
2022-11-17T04:31:13.509Z,1.73
2022-11-17T04:33:46.823Z,1.77
2022-11-17T04:36:20.308Z,1.52
2022-11-17T04:38:52.837Z,2.25
2022-11-17T04:41:44.010Z,2.95
2022-11-17T04:44:15.754Z,1.85
2022-11-17T04:46:46.944Z,1.42
2022-11-17T04:49:19.024Z,1.85
2022-11-17T04:51:49.687Z,1.95
2022-11-17T04:54:23.129Z,2.03
2022-11-17T04:56:53.232Z,1.13
2022-11-17T04:59:23.094Z,1.40
2022-11-17T05:01:52.801Z,1.50
2022-11-17T05:04:41.834Z,2.63
2022-11-17T05:07:11.576Z,2.88
2022-11-17T05:09:40.723Z,1.17
2022-11-17T05:12:29.248Z,0.90
2022-11-17T05:14:58.363Z,1.33
2022-11-17T05:17:27.459Z,1.10
2022-11-17T05:19:58.303Z,1.23
2022-11-17T05:22:45.754Z,2.50
2022-11-17T05:25:14.887Z,1.10
2022-11-17T05:27:43.964Z,0.85
2022-11-17T05:30:14.114Z,1.00
2022-11-17T05:32:43.310Z,1.15
2022-11-17T05:35:12.536Z,1.05
2022-11-17T05:37:41.618Z,1.10
2022-11-17T05:40:12.210Z,0.85
2022-11-17T05:42:41.372Z,1.00
2022-11-17T05:45:12.360Z,1.13
2022-11-17T05:47:41.485Z,1.50
2022-11-17T05:50:11.081Z,0.85
2022-11-17T05:52:40.600Z,1.02
2022-11-17T05:55:10.417Z,1.20
2022-11-17T05:57:39.677Z,1.05
2022-11-17T06:00:10.026Z,0.98
2022-11-17T06:03:06.654Z,1.35
2022-11-17T06:05:36.383Z,1.08
2022-11-17T06:08:05.744Z,0.77
2022-11-17T06:10:36.475Z,1.80
2022-11-17T06:13:05.599Z,1.13
2022-11-17T06:15:36.286Z,1.02
2022-11-17T06:18:18.272Z,1.70
2022-11-17T06:20:53.171Z,0.95
2022-11-17T06:23:26.900Z,0.60
2022-11-17T06:25:56.462Z,0.70
2022-11-17T06:28:26.168Z,0.88
2022-11-17T06:30:56.444Z,0.88
2022-11-17T06:33:26.943Z,1.00
2022-11-17T06:35:56.409Z,0.73
2022-11-17T06:38:25.519Z,0.80
2022-11-17T06:40:54.712Z,0.80
2022-11-17T06:43:24.009Z,0.77
2022-11-17T06:45:53.133Z,0.73
2022-11-17T06:48:28.100Z,0.88
2022-11-17T06:50:58.458Z,0.68
2022-11-17T06:53:30.076Z,0.90
2022-11-17T06:56:09.391Z,1.55
2022-11-17T06:58:42.515Z,0.75
2022-11-17T07:01:15.031Z,0.68
2022-11-17T07:03:44.883Z,1.58
2022-11-17T07:06:14.375Z,0.95
2022-11-17T07:08:43.921Z,0.77
2022-11-17T07:11:17.667Z,0.40
2022-11-17T07:13:47.099Z,1.10
2022-11-17T07:16:23.880Z,0.88
2022-11-17T07:18:54.809Z,0.50
2022-11-17T07:21:24.088Z,0.50
2022-11-17T07:23:53.684Z,2.40
2022-11-17T07:26:23.019Z,1.58
2022-11-17T07:28:52.202Z,0.77
2022-11-17T07:31:21.474Z,1.10
2022-11-17T07:33:51.424Z,1.15
2022-11-17T07:36:20.646Z,1.00
2022-11-17T07:38:49.876Z,0.90
2022-11-17T07:41:19.130Z,0.90
2022-11-17T07:43:48.356Z,0.65
2022-11-17T07:46:18.166Z,0.88
2022-11-17T07:48:47.569Z,1.05
2022-11-17T07:51:18.148Z,1.38
2022-11-17T07:53:48.566Z,1.35
2022-11-17T07:56:17.869Z,1.08
2022-11-17T07:58:47.122Z,0.57
2022-11-17T08:01:20.173Z,1.42
2022-11-17T08:03:49.546Z,1.25
2022-11-17T08:06:18.841Z,1.30
2022-11-17T08:08:50.629Z,1.92
2022-11-17T08:11:20.428Z,0.80
2022-11-17T08:13:51.148Z,0.70
2022-11-17T08:16:21.595Z,0.95
2022-11-17T08:18:52.603Z,0.93
2022-11-17T08:21:22.237Z,0.98
2022-11-17T08:23:56.087Z,0.70
2022-11-17T08:26:26.417Z,0.93
2022-11-17T08:28:58.833Z,1.90
2022-11-17T08:31:28.475Z,0.90
2022-11-17T08:33:57.661Z,1.30
2022-11-17T08:36:26.904Z,1.27
2022-11-17T08:38:56.164Z,0.60
2022-11-17T08:41:26.774Z,0.88
2022-11-17T08:43:56.145Z,0.60
2022-11-17T08:46:27.466Z,0.90
2022-11-17T08:48:57.229Z,0.50
2022-11-17T08:51:28.116Z,0.77
2022-11-17T08:53:59.856Z,1.23
2022-11-17T08:56:29.096Z,2.20
2022-11-17T08:58:58.287Z,0.57
2022-11-17T09:01:28.179Z,0.82
2022-11-17T09:03:57.508Z,0.98
2022-11-17T09:06:27.045Z,0.82
2022-11-17T09:08:57.017Z,1.15
2022-11-17T09:11:26.966Z,0.88
2022-11-17T09:13:56.310Z,0.73
2022-11-17T09:16:26.331Z,0.70
2022-11-17T09:18:59.505Z,0.93
2022-11-17T09:21:29.679Z,1.33
2022-11-17T09:23:59.010Z,0.95
2022-11-17T09:26:28.737Z,1.45
2022-11-17T09:29:01.751Z,0.90
2022-11-17T09:31:31.663Z,1.38
2022-11-17T09:34:05.045Z,2.88
2022-11-17T09:36:35.531Z,1.42
2022-11-17T09:39:05.385Z,1.60
2022-11-17T09:41:53.025Z,0.80
2022-11-17T09:44:43.312Z,1.70
2022-11-17T09:47:47.531Z,1.65
2022-11-17T09:50:37.468Z,0.80
2022-11-17T09:53:37.609Z,2.65
2022-11-17T09:56:13.150Z,1.95
2022-11-17T09:58:50.153Z,1.40
2022-11-17T10:01:22.538Z,2.65
2022-11-17T10:03:56.057Z,2.05
2022-11-17T10:06:30.150Z,1.50
2022-11-17T10:09:27.817Z,1.88
2022-11-17T10:14:34.878Z,2.75
2022-11-17T10:17:04.112Z,3.00
2022-11-17T10:19:42.016Z,5.10
2022-11-17T10:22:11.167Z,9.15
2022-11-17T10:24:56.346Z,10.18
2022-11-17T10:27:36.111Z,8.43
2022-11-17T10:30:25.083Z,6.75
2022-11-17T10:32:58.737Z,8.13
2022-11-17T10:35:32.312Z,7.30
2022-11-17T10:38:22.259Z,7.63
2022-11-17T10:40:53.928Z,8.25
2022-11-17T10:43:40.121Z,8.93
2022-11-17T10:46:18.164Z,12.90
2022-11-17T10:51:36.859Z,14.73
2022-11-17T10:54:08.715Z,13.90
2022-11-17T10:56:55.833Z,12.93
2022-11-17T10:59:57.139Z,11.43
2022-11-17T11:02:40.433Z,9.35
2022-11-17T11:05:15.417Z,8.27
2022-11-17T11:07:45.764Z,7.40
2022-11-17T11:10:24.576Z,7.60
2022-11-17T11:13:15.300Z,8.27
2022-11-17T11:15:45.943Z,8.63
2022-11-17T11:18:19.366Z,8.60
2022-11-17T11:21:07.793Z,12.00
2022-11-17T11:24:16.955Z,10.98
2022-11-17T11:27:10.315Z,10.25
2022-11-17T11:30:06.336Z,8.10
2022-11-17T11:33:01.796Z,9.77
2022-11-17T11:36:16.566Z,8.57
2022-11-17T11:38:58.231Z,8.77
2022-11-17T11:42:07.664Z,8.52
2022-11-17T11:45:18.881Z,8.82
2022-11-17T11:48:22.388Z,9.68
2022-11-17T11:51:26.409Z,10.57
2022-11-17T11:54:28.810Z,8.77
2022-11-17T11:56:58.941Z,8.43
2022-11-17T12:00:02.390Z,7.53
2022-11-17T12:03:05.944Z,7.28
2022-11-17T12:05:58.231Z,8.88
2022-11-17T12:08:57.379Z,8.57
2022-11-17T12:11:45.395Z,7.88
2022-11-17T12:16:50.627Z,7.43
2022-11-17T12:19:45.749Z,8.38
2022-11-17T12:22:35.532Z,7.22
2022-11-17T12:25:22.577Z,6.97
2022-11-17T12:27:54.350Z,7.10
2022-11-17T12:30:35.573Z,8.38
2022-11-17T12:33:09.843Z,6.53
2022-11-17T12:35:41.111Z,5.78
2022-11-17T12:38:19.746Z,6.57
2022-11-17T12:40:55.894Z,6.50
2022-11-17T12:43:28.609Z,6.53
2022-11-17T12:46:05.358Z,6.72
2022-11-17T12:48:41.316Z,7.65
2022-11-17T12:51:36.430Z,6.25
2022-11-17T12:54:32.506Z,7.10
2022-11-17T12:57:28.286Z,7.65
2022-11-17T13:00:24.670Z,8.23
2022-11-17T13:03:18.909Z,7.40
2022-11-17T13:06:33.787Z,8.02
2022-11-17T13:09:01.020Z,9.43
2022-11-17T13:11:31.181Z,8.68
2022-11-17T13:14:29.401Z,10.00
2022-11-17T13:17:00.637Z,10.57
2022-11-17T13:19:43.312Z,9.80
2022-11-17T13:22:22.793Z,10.57
2022-11-17T13:24:54.798Z,11.73
2022-11-17T13:27:32.790Z,10.85
2022-11-17T13:30:37.663Z,9.15
2022-11-17T13:33:21.040Z,8.48
2022-11-17T13:35:52.411Z,8.60
2022-11-17T13:38:24.657Z,8.38
2022-11-17T13:40:55.506Z,8.13
2022-11-17T13:43:27.300Z,7.57
2022-11-17T13:45:57.536Z,7.18
2022-11-17T13:48:40.680Z,10.45
2022-11-17T13:51:39.529Z,9.27
2022-11-17T13:54:22.932Z,10.18
2022-11-17T13:57:08.739Z,9.75
2022-11-17T13:59:40.856Z,10.45
2022-11-17T14:02:21.752Z,10.60
2022-11-17T14:05:18.634Z,8.88
2022-11-17T14:07:48.932Z,8.73
2022-11-17T14:10:23.903Z,9.35
2022-11-17T14:13:15.563Z,9.57
2022-11-17T14:15:57.499Z,9.63
2022-11-17T14:18:38.540Z,7.22
2022-11-17T14:21:18.939Z,9.75
2022-11-17T14:23:48.086Z,9.05
2022-11-17T14:26:26.053Z,10.07
2022-11-17T14:28:56.385Z,9.55
2022-11-17T14:31:25.659Z,9.52
2022-11-17T14:33:54.935Z,11.13
2022-11-17T14:36:24.527Z,10.02
2022-11-17T14:38:54.075Z,9.15
2022-11-17T14:41:23.368Z,9.80
2022-11-17T14:43:52.621Z,11.68
2022-11-17T14:46:28.312Z,9.75
2022-11-17T14:48:57.724Z,10.07
2022-11-17T14:51:27.280Z,13.68
2022-11-17T14:53:57.279Z,13.60
2022-11-17T14:56:26.892Z,14.13
2022-11-17T14:59:01.082Z,13.45
2022-11-17T15:01:35.665Z,13.93
2022-11-17T15:04:34.602Z,13.85
2022-11-17T15:06:57.936Z,13.80
2022-11-17T15:09:27.313Z,14.90
2022-11-17T15:11:56.565Z,14.18
2022-11-17T15:14:25.899Z,16.67
2022-11-17T15:16:55.119Z,17.35
2022-11-17T15:19:27.283Z,14.98
2022-11-17T15:21:56.444Z,13.55
2022-11-17T15:24:25.622Z,17.25
2022-11-17T15:26:56.494Z,19.75
2022-11-17T15:29:25.719Z,19.15
2022-11-17T15:31:54.941Z,18.15
2022-11-17T15:34:24.190Z,17.25
2022-11-17T15:36:53.507Z,16.95
2022-11-17T15:39:22.871Z,17.42
2022-11-17T15:41:52.689Z,17.75
2022-11-17T15:44:21.852Z,18.58
2022-11-17T15:46:51.107Z,16.98
2022-11-17T15:49:20.312Z,16.73
2022-11-17T15:51:49.513Z,15.52
2022-11-17T15:54:20.942Z,15.57
2022-11-17T15:56:51.852Z,15.30
2022-11-17T15:59:21.086Z,16.52
2022-11-17T16:01:50.606Z,15.45
2022-11-17T16:04:20.034Z,14.50
2022-11-17T16:06:49.400Z,16.13
2022-11-17T16:09:18.729Z,15.07
2022-11-17T16:11:48.173Z,15.75
2022-11-17T16:14:17.437Z,14.82
2022-11-17T16:16:48.857Z,15.63
2022-11-17T16:19:18.409Z,15.57
2022-11-17T16:21:47.761Z,16.05
2022-11-17T16:24:17.065Z,13.93
2022-11-17T16:26:46.789Z,14.88
2022-11-17T16:29:16.206Z,14.85
2022-11-17T16:31:54.969Z,15.23
2022-11-17T16:34:24.209Z,15.25
2022-11-17T16:36:53.417Z,15.48
2022-11-17T16:39:22.785Z,14.68
2022-11-17T16:41:52.309Z,14.63
2022-11-17T16:44:21.779Z,14.70
2022-11-17T16:46:51.193Z,14.43
2022-11-17T16:49:21.543Z,14.10
2022-11-17T16:51:54.669Z,14.70
2022-11-17T16:54:24.900Z,13.93
2022-11-17T16:56:54.040Z,16.83
2022-11-17T16:59:23.258Z,13.90
2022-11-17T17:01:52.471Z,13.43
2022-11-17T17:04:21.671Z,12.93
2022-11-17T17:06:51.125Z,13.00
2022-11-17T17:09:24.920Z,13.80
2022-11-17T17:11:57.005Z,12.48
2022-11-17T17:14:26.264Z,12.77
2022-11-17T17:16:55.423Z,14.18
2022-11-17T17:19:25.285Z,13.15
2022-11-17T17:21:55.067Z,13.00
2022-11-17T17:24:24.212Z,13.55
2022-11-17T17:26:53.407Z,13.80
2022-11-17T17:29:22.699Z,13.00
2022-11-17T17:31:51.897Z,13.82
2022-11-17T17:34:21.235Z,13.38
2022-11-17T17:36:50.490Z,12.48
2022-11-17T17:39:19.901Z,12.63
2022-11-17T17:41:49.220Z,13.38
2022-11-17T17:44:20.956Z,13.98
2022-11-17T17:46:50.942Z,14.02
2022-11-17T17:49:20.457Z,13.35
2022-11-17T17:51:49.808Z,14.57
2022-11-17T17:54:24.988Z,14.82
2022-11-17T17:56:54.228Z,15.05
2022-11-17T17:59:23.442Z,15.13
2022-11-17T18:01:52.977Z,15.05
2022-11-17T18:04:22.378Z,15.50
2022-11-17T18:06:52.061Z,15.02
2022-11-17T18:09:21.368Z,15.73
2022-11-17T18:11:51.995Z,15.95
2022-11-17T18:14:25.151Z,16.23
2022-11-17T18:16:55.602Z,17.25
2022-11-17T18:19:29.781Z,14.95
2022-11-17T18:22:02.372Z,15.32
2022-11-17T18:24:31.583Z,16.15
2022-11-17T18:27:00.894Z,16.40
2022-11-17T18:29:30.124Z,15.18
2022-11-17T18:31:59.302Z,15.63
2022-11-17T18:34:28.540Z,15.20
2022-11-17T18:36:58.186Z,15.77
2022-11-17T18:39:29.260Z,13.90
2022-11-17T18:41:58.515Z,15.68
2022-11-17T18:44:27.734Z,14.93
2022-11-17T18:47:02.347Z,14.95
2022-11-17T18:49:32.764Z,14.75
2022-11-17T18:52:02.296Z,15.45
2022-11-17T18:54:31.771Z,15.05
2022-11-17T18:57:01.215Z,14.48
2022-11-17T18:59:30.473Z,14.40
2022-11-17T19:01:59.596Z,15.05
2022-11-17T19:04:29.463Z,14.57
2022-11-17T19:06:58.655Z,15.35
2022-11-17T19:09:27.868Z,14.25
2022-11-17T19:11:57.040Z,13.80
2022-11-17T19:14:26.108Z,15.18
2022-11-17T19:16:56.327Z,14.93
2022-11-17T19:19:25.405Z,15.00
2022-11-17T19:21:54.609Z,15.35
2022-11-17T19:24:23.728Z,16.17
2022-11-17T19:26:52.819Z,15.73
2022-11-17T19:29:22.737Z,17.25
2022-11-17T19:31:53.633Z,15.75
2022-11-17T19:34:22.730Z,14.63
2022-11-17T19:36:51.839Z,15.35
2022-11-17T19:39:21.014Z,15.45
2022-11-17T19:41:50.175Z,16.30
2022-11-17T19:44:19.256Z,15.45
2022-11-17T19:46:48.392Z,16.55
2022-11-17T19:49:17.830Z,16.05
2022-11-17T19:51:48.108Z,15.60
2022-11-17T19:54:17.313Z,14.82
2022-11-17T19:56:46.404Z,16.38
2022-11-17T19:59:16.663Z,16.52
2022-11-17T20:01:46.787Z,16.17
2022-11-17T20:04:16.274Z,16.48
2022-11-17T20:06:45.590Z,16.42
2022-11-17T20:09:16.094Z,16.15
2022-11-17T20:11:45.528Z,16.42
2022-11-17T20:14:15.421Z,16.55
2022-11-17T20:16:44.505Z,16.23
2022-11-17T20:19:15.033Z,16.23
2022-11-17T20:21:44.274Z,15.50
2022-11-17T20:24:13.605Z,15.85
2022-11-17T20:26:45.102Z,15.45
2022-11-17T20:29:14.623Z,15.63
2022-11-17T20:31:43.907Z,16.23
2022-11-17T20:34:14.331Z,15.85
2022-11-17T20:36:43.479Z,15.55
2022-11-17T20:39:12.641Z,16.50
2022-11-17T20:41:41.735Z,16.58
2022-11-17T20:44:24.663Z,15.25
2022-11-17T20:46:57.496Z,15.25
2022-11-17T20:49:28.833Z,16.38
2022-11-17T20:51:58.858Z,15.73
2022-11-17T20:54:28.502Z,16.40
2022-11-17T20:56:57.690Z,18.55
2022-11-17T20:59:27.026Z,17.75
2022-11-17T21:01:56.445Z,15.00
2022-11-17T21:04:25.648Z,14.88
2022-11-17T21:06:54.881Z,15.60
2022-11-17T21:09:24.153Z,15.85
2022-11-17T21:11:59.381Z,15.98
2022-11-17T21:14:29.693Z,15.40
2022-11-17T21:17:01.471Z,14.90
2022-11-17T21:19:35.297Z,15.05
2022-11-17T21:22:07.078Z,15.77
2022-11-17T21:24:36.203Z,15.73
2022-11-17T21:27:05.496Z,15.50
2022-11-17T21:29:34.627Z,15.32
2022-11-17T21:32:03.830Z,15.60
2022-11-17T21:34:33.105Z,14.95
2022-11-17T21:37:02.290Z,14.90
2022-11-17T21:39:31.546Z,15.13
2022-11-17T21:42:00.975Z,15.43
2022-11-17T21:44:30.152Z,14.25
2022-11-17T21:46:59.328Z,16.05
2022-11-17T21:49:28.472Z,14.85
2022-11-17T21:51:57.711Z,14.48
2022-11-17T21:54:27.060Z,15.02
2022-11-17T21:56:56.700Z,14.50
2022-11-17T21:59:26.076Z,16.15
2022-11-17T22:01:55.637Z,14.20
2022-11-17T22:04:24.770Z,14.95
2022-11-17T22:06:54.082Z,15.73
2022-11-17T22:09:23.365Z,14.80
2022-11-17T22:11:52.962Z,14.30
2022-11-17T22:14:22.716Z,14.80
2022-11-17T22:16:55.178Z,15.07
2022-11-17T22:19:30.332Z,14.00
2022-11-17T22:21:59.552Z,13.63
2022-11-17T22:24:28.880Z,13.57
2022-11-17T22:26:58.096Z,12.70
2022-11-17T22:29:27.567Z,13.13
2022-11-17T22:31:57.098Z,12.70
2022-11-17T22:34:26.332Z,13.88
2022-11-17T22:36:55.487Z,13.43
2022-11-17T22:39:24.708Z,13.43
2022-11-17T22:41:56.202Z,12.20
2022-11-17T22:44:25.927Z,12.63
2022-11-17T22:46:55.089Z,12.10
2022-11-17T22:49:24.381Z,13.27
2022-11-17T22:52:06.741Z,12.73
2022-11-17T22:54:36.919Z,12.40
2022-11-17T22:57:07.180Z,13.00
2022-11-17T22:59:36.243Z,12.95
2022-11-17T23:02:05.351Z,13.70
2022-11-17T23:04:35.292Z,12.68
2022-11-17T23:07:04.531Z,12.50
2022-11-17T23:09:33.796Z,11.80
2022-11-17T23:12:02.970Z,12.55
2022-11-17T23:14:32.171Z,11.50
2022-11-17T23:17:01.584Z,12.07
2022-11-17T23:19:30.762Z,12.05
2022-11-17T23:21:59.984Z,11.77
2022-11-17T23:24:29.156Z,11.18
2022-11-17T23:26:58.345Z,13.20
2022-11-17T23:29:27.493Z,21.10
2022-11-17T23:31:56.771Z,15.95
2022-11-17T23:34:25.949Z,14.02
2022-11-17T23:37:03.396Z,11.80
2022-11-17T23:39:33.398Z,13.73
2022-11-17T23:42:02.631Z,12.35
2022-11-17T23:44:31.954Z,12.77
2022-11-17T23:47:01.200Z,12.35
2022-11-17T23:49:30.690Z,11.40
2022-11-17T23:51:59.888Z,12.60
2022-11-17T23:54:29.708Z,13.00
2022-11-17T23:56:58.880Z,12.13
2022-11-17T23:59:28.141Z,12.30
